sensor_id;sensor_type;location;lat;lon;timestamp;pressure;altitude;pressure_sealevel;temperature;humidity
8280;BME280;8335;42.646;23.380;2023-02-11T00:00:47;141011.34;;;-2.55;74.16
8280;BME280;8335;42.646;23.380;2023-02-11T00:03:13;140979.38;;;-2.68;74.16
8280;BME280;8335;42.646;23.380;2023-02-11T00:05:40;140991.69;;;-2.63;73.89
8280;BME280;8335;42.646;23.380;2023-02-11T00:08:07;140986.72;;;-2.65;74.34
8280;BME280;8335;42.646;23.380;2023-02-11T00:10:35;140970.75;;;-2.72;73.75
8280;BME280;8335;42.646;23.380;2023-02-11T00:13:02;140958.50;;;-2.77;73.41
8280;BME280;8335;42.646;23.380;2023-02-11T00:15:28;140954.81;;;-2.79;73.71
8280;BME280;8335;42.646;23.380;2023-02-11T00:17:55;140935.13;;;-2.87;73.65
8280;BME280;8335;42.646;23.380;2023-02-11T00:20:22;140914.25;;;-2.95;73.63
8280;BME280;8335;42.646;23.380;2023-02-11T00:22:48;140924.09;;;-2.91;72.96
8280;BME280;8335;42.646;23.380;2023-02-11T00:25:15;140895.81;;;-3.03;73.57
8280;BME280;8335;42.646;23.380;2023-02-11T00:27:43;140884.75;;;-3.08;73.54
8280;BME280;8335;42.646;23.380;2023-02-11T00:30:10;140850.38;;;-3.22;73.67
8280;BME280;8335;42.646;23.380;2023-02-11T00:32:37;140824.59;;;-3.33;74.40
8280;BME280;8335;42.646;23.380;2023-02-11T00:35:05;140829.50;;;-3.30;74.41
8280;BME280;8335;42.646;23.380;2023-02-11T00:37:31;140825.81;;;-3.32;74.85
8280;BME280;8335;42.646;23.380;2023-02-11T00:40:01;140827.06;;;-3.32;74.92
8280;BME280;8335;42.646;23.380;2023-02-11T00:42:27;140823.38;;;-3.33;75.00
8280;BME280;8335;42.646;23.380;2023-02-11T00:44:56;140817.25;;;-3.36;75.15
8280;BME280;8335;42.646;23.380;2023-02-11T00:47:22;140817.25;;;-3.36;75.50
8280;BME280;8335;42.646;23.380;2023-02-11T00:49:49;140820.91;;;-3.34;75.54
8280;BME280;8335;42.646;23.380;2023-02-11T00:52:16;140806.19;;;-3.40;75.08
8280;BME280;8335;42.646;23.380;2023-02-11T00:54:43;140797.56;;;-3.44;75.22
8280;BME280;8335;42.646;23.380;2023-02-11T00:57:09;140777.94;;;-3.52;75.58
8280;BME280;8335;42.646;23.380;2023-02-11T00:59:36;140774.25;;;-3.53;75.63
8280;BME280;8335;42.646;23.380;2023-02-11T01:02:04;140754.59;;;-3.62;75.79
8280;BME280;8335;42.646;23.380;2023-02-11T01:04:31;140774.25;;;-3.53;75.80
8280;BME280;8335;42.646;23.380;2023-02-11T01:06:58;140773.03;;;-3.54;75.33
8280;BME280;8335;42.646;23.380;2023-02-11T01:09:24;140777.94;;;-3.52;75.42
8280;BME280;8335;42.646;23.380;2023-02-11T01:11:51;140764.41;;;-3.57;75.44
8280;BME280;8335;42.646;23.380;2023-02-11T01:14:18;140749.72;;;-3.64;75.55
8280;BME280;8335;42.646;23.380;2023-02-11T01:16:45;140752.16;;;-3.63;75.76
8280;BME280;8335;42.646;23.380;2023-02-11T01:19:13;140749.72;;;-3.64;75.38
8280;BME280;8335;42.646;23.380;2023-02-11T01:21:40;140732.53;;;-3.71;75.32
8280;BME280;8335;42.646;23.380;2023-02-11T01:24:06;140725.13;;;-3.74;75.03
8280;BME280;8335;42.646;23.380;2023-02-11T01:26:33;140700.59;;;-3.84;75.33
8280;BME280;8335;42.646;23.380;2023-02-11T01:29:00;140685.88;;;-3.90;75.77
8280;BME280;8335;42.646;23.380;2023-02-11T01:31:27;140694.44;;;-3.87;75.98
8280;BME280;8335;42.646;23.380;2023-02-11T01:33:55;140688.31;;;-3.89;75.76
8280;BME280;8335;42.646;23.380;2023-02-11T01:36:23;140682.19;;;-3.92;75.78
8280;BME280;8335;42.646;23.380;2023-02-11T01:38:50;140674.81;;;-3.95;76.23
8280;BME280;8335;42.646;23.380;2023-02-11T01:41:17;140653.94;;;-4.03;76.56
8280;BME280;8335;42.646;23.380;2023-02-11T01:43:46;140609.75;;;-4.22;76.68
8280;BME280;8335;42.646;23.380;2023-02-11T01:46:29;140642.88;;;-4.08;76.30
8280;BME280;8335;42.646;23.380;2023-02-11T01:48:58;140635.56;;;-4.11;76.39
8280;BME280;8335;42.646;23.380;2023-02-11T01:51:32;140617.16;;;-4.19;76.94
8280;BME280;8335;42.646;23.380;2023-02-11T01:54:01;140617.16;;;-4.19;77.32
8280;BME280;8335;42.646;23.380;2023-02-11T01:56:48;140612.25;;;-4.21;77.07
8280;BME280;8335;42.646;23.380;2023-02-11T01:59:40;140604.88;;;-4.24;76.83
8280;BME280;8335;42.646;23.380;2023-02-11T02:02:10;140595.06;;;-4.28;77.10
8280;BME280;8335;42.646;23.380;2023-02-11T02:04:43;140560.72;;;-4.42;77.27
8280;BME280;8335;42.646;23.380;2023-02-11T02:07:21;140552.13;;;-4.46;77.48
8280;BME280;8335;42.646;23.380;2023-02-11T02:09:58;140553.34;;;-4.45;77.13
8280;BME280;8335;42.646;23.380;2023-02-11T02:12:26;140544.78;;;-4.49;77.03
8280;BME280;8335;42.646;23.380;2023-02-11T02:15:10;140531.28;;;-4.54;77.05
8280;BME280;8335;42.646;23.380;2023-02-11T02:17:47;140527.59;;;-4.56;77.01
8280;BME280;8335;42.646;23.380;2023-02-11T02:23:24;140514.09;;;-4.61;77.75
8280;BME280;8335;42.646;23.380;2023-02-11T02:26:10;140509.22;;;-4.63;77.38
8280;BME280;8335;42.646;23.380;2023-02-11T02:29:10;140503.03;;;-4.66;77.63
8280;BME280;8335;42.646;23.380;2023-02-11T02:32:10;140495.72;;;-4.69;77.51
8280;BME280;8335;42.646;23.380;2023-02-11T02:34:43;140485.88;;;-4.73;77.55
8280;BME280;8335;42.646;23.380;2023-02-11T02:37:18;140474.88;;;-4.78;77.59
8280;BME280;8335;42.646;23.380;2023-02-11T02:39:47;140465.03;;;-4.82;77.99
8280;BME280;8335;42.646;23.380;2023-02-11T02:42:17;140460.16;;;-4.84;78.13
8280;BME280;8335;42.646;23.380;2023-02-11T02:44:47;140439.31;;;-4.92;77.73
8280;BME280;8335;42.646;23.380;2023-02-11T02:47:16;140349.78;;;-5.30;77.58
8280;BME280;8335;42.646;23.380;2023-02-11T02:49:43;140414.75;;;-5.03;77.98
8280;BME280;8335;42.646;23.380;2023-02-11T02:52:28;140406.19;;;-5.06;78.32
8280;BME280;8335;42.646;23.380;2023-02-11T02:55:07;140359.59;;;-5.26;77.74
8280;BME280;8335;42.646;23.380;2023-02-11T02:57:48;140368.16;;;-5.22;77.52
8280;BME280;8335;42.646;23.380;2023-02-11T03:00:23;140331.41;;;-5.37;77.76
8280;BME280;8335;42.646;23.380;2023-02-11T03:03:09;140335.09;;;-5.36;78.75
8280;BME280;8335;42.646;23.380;2023-02-11T03:05:45;140310.56;;;-5.46;78.73
8280;BME280;8335;42.646;23.380;2023-02-11T03:08:17;140278.69;;;-5.59;79.03
8280;BME280;8335;42.646;23.380;2023-02-11T03:10:51;140282.38;;;-5.58;78.31
8280;BME280;8335;42.646;23.380;2023-02-11T03:13:21;140238.28;;;-5.76;78.67
8280;BME280;8335;42.646;23.380;2023-02-11T03:15:52;140289.75;;;-5.55;78.48
8280;BME280;8335;42.646;23.380;2023-02-11T03:18:25;140240.72;;;-5.75;78.50
8280;BME280;8335;42.646;23.380;2023-02-11T03:20:53;140288.53;;;-5.55;79.02
8280;BME280;8335;42.646;23.380;2023-02-11T03:23:25;140277.47;;;-5.60;78.55
8280;BME280;8335;42.646;23.380;2023-02-11T03:25:57;140268.94;;;-5.63;78.66
8280;BME280;8335;42.646;23.380;2023-02-11T03:28:29;140275.03;;;-5.61;80.44
8280;BME280;8335;42.646;23.380;2023-02-11T03:31:05;140270.16;;;-5.63;79.18
8280;BME280;8335;42.646;23.380;2023-02-11T03:33:39;140239.50;;;-5.75;79.34
8280;BME280;8335;42.646;23.380;2023-02-11T03:36:10;140254.22;;;-5.69;80.20
8280;BME280;8335;42.646;23.380;2023-02-11T03:38:45;140250.56;;;-5.71;79.70
8280;BME280;8335;42.646;23.380;2023-02-11T03:41:16;140261.53;;;-5.66;80.10
8280;BME280;8335;42.646;23.380;2023-02-11T03:43:47;140216.25;;;-5.85;79.77
8280;BME280;8335;42.646;23.380;2023-02-11T03:46:18;140215.03;;;-5.86;79.57
8280;BME280;8335;42.646;23.380;2023-02-11T03:48:50;140197.91;;;-5.93;79.42
8280;BME280;8335;42.646;23.380;2023-02-11T03:51:19;140206.44;;;-5.89;79.83
8280;BME280;8335;42.646;23.380;2023-02-11T03:53:48;140208.88;;;-5.88;79.62
8280;BME280;8335;42.646;23.380;2023-02-11T03:56:20;140201.59;;;-5.91;79.25
8280;BME280;8335;42.646;23.380;2023-02-11T03:58:49;140193.00;;;-5.95;79.50
8280;BME280;8335;42.646;23.380;2023-02-11T04:01:16;140174.63;;;-6.02;80.12
8280;BME280;8335;42.646;23.380;2023-02-11T04:03:43;140174.63;;;-6.02;80.38
8280;BME280;8335;42.646;23.380;2023-02-11T04:06:11;140172.19;;;-6.03;80.47
8280;BME280;8335;42.646;23.380;2023-02-11T04:08:38;140162.34;;;-6.07;80.75
8280;BME280;8335;42.646;23.380;2023-02-11T04:11:05;140155.03;;;-6.11;81.46
8280;BME280;8335;42.646;23.380;2023-02-11T04:13:31;140140.31;;;-6.17;81.65
8280;BME280;8335;42.646;23.380;2023-02-11T04:15:58;140137.88;;;-6.18;81.69
8280;BME280;8335;42.646;23.380;2023-02-11T04:18:25;140133.00;;;-6.20;82.21
8280;BME280;8335;42.646;23.380;2023-02-11T04:20:52;140141.53;;;-6.16;82.72
8280;BME280;8335;42.646;23.380;2023-02-11T04:23:20;140136.66;;;-6.18;82.28
8280;BME280;8335;42.646;23.380;2023-02-11T04:25:47;140128.06;;;-6.22;82.45
8280;BME280;8335;42.646;23.380;2023-02-11T04:28:14;140131.78;;;-6.20;82.51
8280;BME280;8335;42.646;23.380;2023-02-11T04:30:41;140134.22;;;-6.19;82.67
8280;BME280;8335;42.646;23.380;2023-02-11T04:33:08;140134.22;;;-6.19;82.34
8280;BME280;8335;42.646;23.380;2023-02-11T04:35:35;140114.63;;;-6.27;82.46
8280;BME280;8335;42.646;23.380;2023-02-11T04:38:01;140096.25;;;-6.35;82.35
8280;BME280;8335;42.646;23.380;2023-02-11T04:40:29;140086.44;;;-6.39;82.76
8280;BME280;8335;42.646;23.380;2023-02-11T04:42:56;140085.22;;;-6.40;82.28
8280;BME280;8335;42.646;23.380;2023-02-11T04:45:23;140087.66;;;-6.39;81.21
8280;BME280;8335;42.646;23.380;2023-02-11T04:47:50;140070.53;;;-6.46;80.26
8280;BME280;8335;42.646;23.380;2023-02-11T04:50:17;140048.50;;;-6.55;80.19
8280;BME280;8335;42.646;23.380;2023-02-11T04:52:43;140024.00;;;-6.65;80.40
8280;BME280;8335;42.646;23.380;2023-02-11T04:55:11;140054.63;;;-6.52;81.57
8280;BME280;8335;42.646;23.380;2023-02-11T04:57:39;140048.50;;;-6.55;81.78
8280;BME280;8335;42.646;23.380;2023-02-11T05:00:07;140057.06;;;-6.51;82.18
8280;BME280;8335;42.646;23.380;2023-02-11T05:02:34;140071.75;;;-6.45;82.16
8280;BME280;8335;42.646;23.380;2023-02-11T05:05:01;140084.00;;;-6.40;81.97
8280;BME280;8335;42.646;23.380;2023-02-11T05:07:28;140097.50;;;-6.34;82.42
8280;BME280;8335;42.646;23.380;2023-02-11T05:09:55;140092.56;;;-6.37;81.92
8280;BME280;8335;42.646;23.380;2023-02-11T05:12:22;140107.25;;;-6.30;82.33
8280;BME280;8335;42.646;23.380;2023-02-11T05:14:50;140106.03;;;-6.31;82.54
8280;BME280;8335;42.646;23.380;2023-02-11T05:17:17;140106.03;;;-6.31;81.63
8280;BME280;8335;42.646;23.380;2023-02-11T05:19:44;140109.69;;;-6.29;81.56
8280;BME280;8335;42.646;23.380;2023-02-11T05:22:10;140107.25;;;-6.30;81.20
8280;BME280;8335;42.646;23.380;2023-02-11T05:24:37;140065.66;;;-6.48;81.12
8280;BME280;8335;42.646;23.380;2023-02-11T05:27:04;140104.81;;;-6.31;81.72
8280;BME280;8335;42.646;23.380;2023-02-11T05:29:30;140092.56;;;-6.37;81.70
8280;BME280;8335;42.646;23.380;2023-02-11T05:32:00;140120.72;;;-6.25;81.02
8280;BME280;8335;42.646;23.380;2023-02-11T05:34:27;140119.50;;;-6.25;80.13
8280;BME280;8335;42.646;23.380;2023-02-11T05:36:54;140057.06;;;-6.51;80.10
8280;BME280;8335;42.646;23.380;2023-02-11T05:39:21;140119.50;;;-6.25;79.93
8280;BME280;8335;42.646;23.380;2023-02-11T05:41:47;140134.22;;;-6.19;80.48
8280;BME280;8335;42.646;23.380;2023-02-11T05:44:14;140117.06;;;-6.26;80.66
8280;BME280;8335;42.646;23.380;2023-02-11T05:46:41;140164.84;;;-6.06;80.98
8280;BME280;8335;42.646;23.380;2023-02-11T05:49:09;140235.84;;;-5.77;81.35
8280;BME280;8335;42.646;23.380;2023-02-11T05:51:36;140354.72;;;-5.28;80.92
8280;BME280;8335;42.646;23.380;2023-02-11T05:54:03;140515.31;;;-4.61;78.60
8280;BME280;8335;42.646;23.380;2023-02-11T05:56:29;140688.31;;;-3.89;74.80
8280;BME280;8335;42.646;23.380;2023-02-11T05:58:57;140878.63;;;-3.10;70.48
8280;BME280;8335;42.646;23.380;2023-02-11T06:01:24;141078.94;;;-2.27;66.87
8280;BME280;8335;42.646;23.380;2023-02-11T06:03:51;141272.00;;;-1.47;62.94
8280;BME280;8335;42.646;23.380;2023-02-11T06:06:19;141452.84;;;-0.72;59.30
8280;BME280;8335;42.646;23.380;2023-02-11T06:08:46;141624.03;;;-0.02;56.06
8280;BME280;8335;42.646;23.380;2023-02-11T06:11:13;141779.28;;;0.63;53.32
8280;BME280;8335;42.646;23.380;2023-02-11T06:13:42;141945.75;;;1.31;50.55
8280;BME280;8335;42.646;23.380;2023-02-11T06:16:09;142076.47;;;1.85;48.19
8280;BME280;8335;42.646;23.380;2023-02-11T06:18:35;142206.09;;;2.39;46.26
8280;BME280;8335;42.646;23.380;2023-02-11T06:21:05;142243.13;;;2.54;45.14
8280;BME280;8335;42.646;23.380;2023-02-11T06:23:34;142161.63;;;2.20;45.84
8280;BME280;8335;42.646;23.380;2023-02-11T06:26:02;142250.56;;;2.57;45.51
8280;BME280;8335;42.646;23.380;2023-02-11T06:28:29;142382.66;;;3.12;43.94
8280;BME280;8335;42.646;23.380;2023-02-11T06:30:57;142606.34;;;4.04;43.64
8280;BME280;8335;42.646;23.380;2023-02-11T06:33:23;142827.75;;;4.95;40.72
8280;BME280;8335;42.646;23.380;2023-02-11T06:35:50;143017.09;;;5.73;38.69
8280;BME280;8335;42.646;23.380;2023-02-11T06:38:17;143134.75;;;6.21;37.16
8280;BME280;8335;42.646;23.380;2023-02-11T06:40:47;143204.13;;;6.50;37.42
8280;BME280;8335;42.646;23.380;2023-02-11T06:43:15;143225.22;;;6.58;36.79
8280;BME280;8335;42.646;23.380;2023-02-11T06:45:42;143276.03;;;6.79;36.42
8280;BME280;8335;42.646;23.380;2023-02-11T06:48:09;143311.97;;;6.94;36.29
8280;BME280;8335;42.646;23.380;2023-02-11T06:50:36;143247.53;;;6.68;35.85
8280;BME280;8335;42.646;23.380;2023-02-11T06:53:03;143408.63;;;7.34;35.18
8280;BME280;8335;42.646;23.380;2023-02-11T06:55:30;143507.84;;;7.75;34.25
8280;BME280;8335;42.646;23.380;2023-02-11T06:57:58;143445.81;;;7.49;35.63
8280;BME280;8335;42.646;23.380;2023-02-11T07:00:25;143525.22;;;7.82;35.36
8280;BME280;8335;42.646;23.380;2023-02-11T07:02:53;143602.09;;;8.13;34.62
8280;BME280;8335;42.646;23.380;2023-02-11T07:05:20;143645.53;;;8.31;34.63
8280;BME280;8335;42.646;23.380;2023-02-11T07:07:47;143742.38;;;8.71;34.17
8280;BME280;8335;42.646;23.380;2023-02-11T07:10:13;143892.59;;;9.32;33.81
8280;BME280;8335;42.646;23.380;2023-02-11T07:12:40;143895.09;;;9.33;33.00
8280;BME280;8335;42.646;23.380;2023-02-11T07:15:09;143773.41;;;8.83;33.46
8280;BME280;8335;42.646;23.380;2023-02-11T07:17:35;143744.88;;;8.72;34.40
8280;BME280;8335;42.646;23.380;2023-02-11T07:20:03;143765.97;;;8.80;34.21
8280;BME280;8335;42.646;23.380;2023-02-11T07:22:30;143927.38;;;9.47;33.52
8280;BME280;8335;42.646;23.380;2023-02-11T07:24:56;144046.63;;;9.96;33.36
8280;BME280;8335;42.646;23.380;2023-02-11T07:27:23;144185.88;;;10.53;32.14
8280;BME280;8335;42.646;23.380;2023-02-11T07:29:50;144272.91;;;10.88;31.26
8280;BME280;8335;42.646;23.380;2023-02-11T07:32:18;144340.06;;;11.16;30.62
8280;BME280;8335;42.646;23.380;2023-02-11T07:34:46;144419.66;;;11.48;30.85
8280;BME280;8335;42.646;23.380;2023-02-11T07:37:13;144470.66;;;11.69;30.32
8280;BME280;8335;42.646;23.380;2023-02-11T07:39:40;144559.06;;;12.05;29.71
8280;BME280;8335;42.646;23.380;2023-02-11T07:42:07;144574.00;;;12.11;28.93
8280;BME280;8335;42.646;23.380;2023-02-11T07:44:34;144510.50;;;11.85;29.27
8280;BME280;8335;42.646;23.380;2023-02-11T07:47:01;144513.03;;;11.87;29.11
8280;BME280;8335;42.646;23.380;2023-02-11T07:49:29;144612.56;;;12.27;29.22
8280;BME280;8335;42.646;23.380;2023-02-11T07:51:56;144637.50;;;12.37;28.23
8280;BME280;8335;42.646;23.380;2023-02-11T07:54:23;144403.47;;;11.42;29.59
8280;BME280;8335;42.646;23.380;2023-02-11T07:56:50;144280.34;;;10.91;30.14
8280;BME280;8335;42.646;23.380;2023-02-11T07:59:16;144301.47;;;11.00;30.57
8280;BME280;8335;42.646;23.380;2023-02-11T08:01:43;144352.47;;;11.21;30.45
8280;BME280;8335;42.646;23.380;2023-02-11T08:04:10;144254.25;;;10.81;29.72
8280;BME280;8335;42.646;23.380;2023-02-11T08:06:40;144437.06;;;11.55;29.78
8280;BME280;8335;42.646;23.380;2023-02-11T08:09:10;144468.19;;;11.68;29.73
8280;BME280;8335;42.646;23.380;2023-02-11T08:11:39;144536.66;;;11.96;28.89
8280;BME280;8335;42.646;23.380;2023-02-11T08:14:06;144572.75;;;12.11;28.75
8280;BME280;8335;42.646;23.380;2023-02-11T08:16:34;144691.03;;;12.59;28.76
8280;BME280;8335;42.646;23.380;2023-02-11T08:19:04;144723.41;;;12.73;28.34
8280;BME280;8335;42.646;23.380;2023-02-11T08:21:30;144749.53;;;12.83;27.78
8280;BME280;8335;42.646;23.380;2023-02-11T08:24:00;144742.09;;;12.80;27.77
8280;BME280;8335;42.646;23.380;2023-02-11T08:26:28;144752.03;;;12.84;27.98
8280;BME280;8335;42.646;23.380;2023-02-11T08:28:57;144779.44;;;12.95;28.44
8280;BME280;8335;42.646;23.380;2023-02-11T08:31:27;144867.94;;;13.32;28.07
8280;BME280;8335;42.646;23.380;2023-02-11T08:33:55;144831.75;;;13.17;27.60
8280;BME280;8335;42.646;23.380;2023-02-11T08:36:24;144739.59;;;12.79;27.95
8280;BME280;8335;42.646;23.380;2023-02-11T08:38:53;144720.94;;;12.72;27.92
8280;BME280;8335;42.646;23.380;2023-02-11T08:41:21;144707.22;;;12.66;27.95
8280;BME280;8335;42.646;23.380;2023-02-11T08:43:48;144794.41;;;13.02;27.92
8280;BME280;8335;42.646;23.380;2023-02-11T08:46:16;144758.28;;;12.87;27.34
8280;BME280;8335;42.646;23.380;2023-02-11T08:48:44;144639.97;;;12.38;27.97
8280;BME280;8335;42.646;23.380;2023-02-11T08:51:14;144520.47;;;11.90;27.76
8280;BME280;8335;42.646;23.380;2023-02-11T08:53:42;144429.63;;;11.52;29.25
8280;BME280;8335;42.646;23.380;2023-02-11T08:56:10;144350.00;;;11.20;29.38
8280;BME280;8335;42.646;23.380;2023-02-11T08:58:39;144287.84;;;10.94;29.48
8280;BME280;8335;42.646;23.380;2023-02-11T09:01:08;144294.03;;;10.97;30.06
8280;BME280;8335;42.646;23.380;2023-02-11T09:03:35;144241.81;;;10.75;30.40
8280;BME280;8335;42.646;23.380;2023-02-11T09:06:05;144313.94;;;11.05;29.99
8280;BME280;8335;42.646;23.380;2023-02-11T09:08:33;144357.47;;;11.23;30.19
8280;BME280;8335;42.646;23.380;2023-02-11T09:11:01;144346.28;;;11.18;30.04
8280;BME280;8335;42.646;23.380;2023-02-11T09:13:28;144455.72;;;11.63;29.28
8280;BME280;8335;42.646;23.380;2023-02-11T09:15:56;144415.91;;;11.47;29.99
8280;BME280;8335;42.646;23.380;2023-02-11T09:18:24;144450.75;;;11.61;29.61
8280;BME280;8335;42.646;23.380;2023-02-11T09:20:50;144521.72;;;11.90;30.20
8280;BME280;8335;42.646;23.380;2023-02-11T09:23:17;144540.41;;;11.98;29.06
8280;BME280;8335;42.646;23.380;2023-02-11T09:25:44;144586.47;;;12.17;28.88
8280;BME280;8335;42.646;23.380;2023-02-11T09:28:11;144601.41;;;12.23;29.62
8280;BME280;8335;42.646;23.380;2023-02-11T09:30:38;144577.72;;;12.13;29.10
8280;BME280;8335;42.646;23.380;2023-02-11T09:33:06;144505.53;;;11.83;29.22
8280;BME280;8335;42.646;23.380;2023-02-11T09:35:33;144515.53;;;11.88;29.57
8280;BME280;8335;42.646;23.380;2023-02-11T09:38:00;144577.72;;;12.13;28.77
8280;BME280;8335;42.646;23.380;2023-02-11T09:40:27;144635.00;;;12.36;29.03
8280;BME280;8335;42.646;23.380;2023-02-11T09:42:59;144708.47;;;12.66;28.53
8280;BME280;8335;42.646;23.380;2023-02-11T09:45:29;144663.63;;;12.48;28.59
8280;BME280;8335;42.646;23.380;2023-02-11T09:47:58;144581.50;;;12.15;29.51
8280;BME280;8335;42.646;23.380;2023-02-11T09:50:31;144520.47;;;11.90;28.90
8280;BME280;8335;42.646;23.380;2023-02-11T09:53:01;144506.78;;;11.84;28.93
8280;BME280;8335;42.646;23.380;2023-02-11T09:55:30;144509.28;;;11.85;29.28
8280;BME280;8335;42.646;23.380;2023-02-11T09:58:03;144434.59;;;11.54;28.91
8280;BME280;8335;42.646;23.380;2023-02-11T10:00:35;144484.34;;;11.75;29.35
8280;BME280;8335;42.646;23.380;2023-02-11T10:03:24;144501.81;;;11.82;29.22
8280;BME280;8335;42.646;23.380;2023-02-11T10:06:11;144535.44;;;11.96;28.72
8280;BME280;8335;42.646;23.380;2023-02-11T10:08:49;144459.50;;;11.65;28.33
8280;BME280;8335;42.646;23.380;2023-02-11T10:11:24;144382.34;;;11.33;29.67
8280;BME280;8335;42.646;23.380;2023-02-11T10:13:57;144404.72;;;11.42;29.33
8280;BME280;8335;42.646;23.380;2023-02-11T10:16:51;144409.72;;;11.44;29.52
8280;BME280;8335;42.646;23.380;2023-02-11T10:19:36;144342.53;;;11.17;29.66
8280;BME280;8335;42.646;23.380;2023-02-11T10:22:14;144302.75;;;11.00;29.47
8280;BME280;8335;42.646;23.380;2023-02-11T10:24:50;144302.75;;;11.00;29.88
8280;BME280;8335;42.646;23.380;2023-02-11T10:27:20;144301.47;;;11.00;29.63
8280;BME280;8335;42.646;23.380;2023-02-11T10:29:50;144253.03;;;10.80;30.73
8280;BME280;8335;42.646;23.380;2023-02-11T10:32:30;144345.03;;;11.18;29.92
8280;BME280;8335;42.646;23.380;2023-02-11T10:35:03;144294.03;;;10.97;30.56
8280;BME280;8335;42.646;23.380;2023-02-11T10:37:37;144266.66;;;10.86;29.93
8280;BME280;8335;42.646;23.380;2023-02-11T10:40:06;144358.72;;;11.23;28.65
8280;BME280;8335;42.646;23.380;2023-02-11T10:42:38;144397.28;;;11.39;28.72
8280;BME280;8335;42.646;23.380;2023-02-11T10:45:14;144381.09;;;11.33;28.29
8280;BME280;8335;42.646;23.380;2023-02-11T10:47:43;144265.41;;;10.85;28.79
8280;BME280;8335;42.646;23.380;2023-02-11T10:50:23;144106.25;;;10.20;29.43
8280;BME280;8335;42.646;23.380;2023-02-11T10:52:51;144076.47;;;10.08;29.39
8280;BME280;8335;42.646;23.380;2023-02-11T10:55:20;144070.22;;;10.05;29.49
8280;BME280;8335;42.646;23.380;2023-02-11T10:57:54;144101.31;;;10.18;28.75
8280;BME280;8335;42.646;23.380;2023-02-11T11:00:32;144156.03;;;10.40;28.81
8280;BME280;8335;42.646;23.380;2023-02-11T11:03:02;144267.94;;;10.86;28.24
8280;BME280;8335;42.646;23.380;2023-02-11T11:05:32;144240.56;;;10.75;27.82
8280;BME280;8335;42.646;23.380;2023-02-11T11:08:03;144331.34;;;11.12;28.04
8280;BME280;8335;42.646;23.380;2023-02-11T11:10:35;144310.19;;;11.03;27.83
8280;BME280;8335;42.646;23.380;2023-02-11T11:13:23;144267.94;;;10.86;29.02
8280;BME280;8335;42.646;23.380;2023-02-11T11:16:06;144164.75;;;10.44;28.96
8280;BME280;8335;42.646;23.380;2023-02-11T11:18:33;144117.53;;;10.25;29.69
8280;BME280;8335;42.646;23.380;2023-02-11T11:21:01;144137.41;;;10.33;29.13
8280;BME280;8335;42.646;23.380;2023-02-11T11:23:32;144221.94;;;10.67;29.25
8280;BME280;8335;42.646;23.380;2023-02-11T11:26:03;144197.03;;;10.57;29.28
8280;BME280;8335;42.646;23.380;2023-02-11T11:28:35;143977.06;;;9.67;30.13
8280;BME280;8335;42.646;23.380;2023-02-11T11:31:05;144010.63;;;9.81;30.56
8280;BME280;8335;42.646;23.380;2023-02-11T11:33:40;143960.91;;;9.60;30.40
8280;BME280;8335;42.646;23.380;2023-02-11T11:36:10;143864.03;;;9.21;30.57
8280;BME280;8335;42.646;23.380;2023-02-11T11:38:46;143841.69;;;9.12;31.38
8280;BME280;8335;42.646;23.380;2023-02-11T11:41:16;143813.13;;;9.00;31.09
8280;BME280;8335;42.646;23.380;2023-02-11T11:43:57;143708.84;;;8.57;31.82
8280;BME280;8335;42.646;23.380;2023-02-11T11:46:28;143670.38;;;8.41;31.88
8280;BME280;8335;42.646;23.380;2023-02-11T11:49:00;143703.91;;;8.55;31.82
8280;BME280;8335;42.646;23.380;2023-02-11T11:51:31;143662.97;;;8.38;32.73
8280;BME280;8335;42.646;23.380;2023-02-11T11:54:02;143636.84;;;8.27;33.04
8280;BME280;8335;42.646;23.380;2023-02-11T11:56:33;143640.59;;;8.29;32.11
8280;BME280;8335;42.646;23.380;2023-02-11T11:59:08;143623.22;;;8.22;32.73
8280;BME280;8335;42.646;23.380;2023-02-11T12:01:49;143581.00;;;8.05;33.22
8280;BME280;8335;42.646;23.380;2023-02-11T12:04:51;143419.81;;;7.38;34.23
8280;BME280;8335;42.646;23.380;2023-02-11T12:07:30;143373.91;;;7.20;35.22
8280;BME280;8335;42.646;23.380;2023-02-11T12:10:36;143346.69;;;7.08;34.26
8280;BME280;8335;42.646;23.380;2023-02-11T12:13:19;143298.31;;;6.88;35.34
8280;BME280;8335;42.646;23.380;2023-02-11T12:15:56;143313.22;;;6.95;35.28
8280;BME280;8335;42.646;23.380;2023-02-11T12:18:55;143238.81;;;6.64;35.82
8280;BME280;8335;42.646;23.380;2023-02-11T12:21:35;143230.16;;;6.60;35.37
8280;BME280;8335;42.646;23.380;2023-02-11T12:24:29;143243.81;;;6.66;35.24
8280;BME280;8335;42.646;23.380;2023-02-11T12:27:05;143263.63;;;6.74;35.83
8280;BME280;8335;42.646;23.380;2023-02-11T12:29:42;143226.47;;;6.59;35.71
8280;BME280;8335;42.646;23.380;2023-02-11T12:32:20;143207.88;;;6.51;36.33
8280;BME280;8335;42.646;23.380;2023-02-11T12:37:47;143131.06;;;6.20;37.03
8280;BME280;8335;42.646;23.380;2023-02-11T12:40:23;143074.09;;;5.96;36.97
8280;BME280;8335;42.646;23.380;2023-02-11T12:43:04;143084.03;;;6.00;37.34
8280;BME280;8335;42.646;23.380;2023-02-11T12:45:58;143067.91;;;5.94;36.67
8280;BME280;8335;42.646;23.380;2023-02-11T12:48:44;143077.81;;;5.98;36.79
8280;BME280;8335;42.646;23.380;2023-02-11T12:51:23;143072.84;;;5.96;37.08
8280;BME280;8335;42.646;23.380;2023-02-11T12:54:14;142978.69;;;5.57;36.45
8280;BME280;8335;42.646;23.380;2023-02-11T12:56:46;142981.19;;;5.58;36.86
8280;BME280;8335;42.646;23.380;2023-02-11T12:59:19;143009.66;;;5.70;36.04
8280;BME280;8335;42.646;23.380;2023-02-11T13:01:55;143031.97;;;5.79;35.77
8280;BME280;8335;42.646;23.380;2023-02-11T13:04:27;143056.72;;;5.89;36.16
8280;BME280;8335;42.646;23.380;2023-02-11T13:06:56;143026.97;;;5.77;35.99
8280;BME280;8335;42.646;23.380;2023-02-11T13:09:31;143020.81;;;5.74;35.37
8280;BME280;8335;42.646;23.380;2023-02-11T13:12:02;143005.94;;;5.68;35.99
8280;BME280;8335;42.646;23.380;2023-02-11T13:14:55;143008.41;;;5.69;36.40
8280;BME280;8335;42.646;23.380;2023-02-11T13:17:29;143034.44;;;5.80;37.25
8280;BME280;8335;42.646;23.380;2023-02-11T13:20:02;143015.88;;;5.72;36.60
8280;BME280;8335;42.646;23.380;2023-02-11T13:22:37;143001.00;;;5.66;36.28
8280;BME280;8335;42.646;23.380;2023-02-11T13:25:19;143005.94;;;5.68;36.82
8280;BME280;8335;42.646;23.380;2023-02-11T13:27:53;142991.09;;;5.62;37.22